sensor_id;sensor_type;location;lat;lon;timestamp;pressure;altitude;pressure_sealevel;temperature;humidity
75895;BME280;64573;50.328;15.014;2024-02-21T00:02:24;99628.13;;;13.85;67.05
75895;BME280;64573;50.328;15.014;2024-02-21T00:04:50;99629.13;;;14.13;65.00
75895;BME280;64573;50.328;15.014;2024-02-21T00:07:15;99628.84;;;13.93;65.93
75895;BME280;64573;50.328;15.014;2024-02-21T00:09:40;99620.19;;;13.83;64.43
75895;BME280;64573;50.328;15.014;2024-02-21T00:12:06;99616.84;;;13.81;64.46
75895;BME280;64573;50.328;15.014;2024-02-21T00:14:31;99628.84;;;13.93;63.94
75895;BME280;64573;50.328;15.014;2024-02-21T00:16:57;99614.50;;;14.07;63.42
75895;BME280;64573;50.328;15.014;2024-02-21T00:19:22;99625.44;;;14.35;62.79
75895;BME280;64573;50.328;15.014;2024-02-21T00:21:47;99618.19;;;14.72;61.31
75895;BME280;64573;50.328;15.014;2024-02-21T00:24:13;99617.78;;;14.54;62.08
75895;BME280;64573;50.328;15.014;2024-02-21T00:26:38;99616.03;;;14.31;62.27
75895;BME280;64573;50.328;15.014;2024-02-21T00:29:03;99606.34;;;14.73;61.02
75895;BME280;64573;50.328;15.014;2024-02-21T00:31:29;99600.56;;;15.26;59.23
75895;BME280;64573;50.328;15.014;2024-02-21T00:33:54;99605.34;;;15.24;58.99
75895;BME280;64573;50.328;15.014;2024-02-21T00:36:20;99602.69;;;15.58;57.81
75895;BME280;64573;50.328;15.014;2024-02-21T00:38:45;99604.22;;;15.67;57.37
75895;BME280;64573;50.328;15.014;2024-02-21T00:41:10;99604.94;;;15.27;57.38
75895;BME280;64573;50.328;15.014;2024-02-21T00:43:36;99600.84;;;15.93;56.35
75895;BME280;64573;50.328;15.014;2024-02-21T00:46:01;99606.31;;;15.65;55.90
75895;BME280;64573;50.328;15.014;2024-02-21T00:51:01;99599.16;;;15.30;57.54
75895;BME280;64573;50.328;15.014;2024-02-21T00:53:27;99595.06;;;15.68;56.58
75895;BME280;64573;50.328;15.014;2024-02-21T00:55:52;99593.25;;;15.48;56.45
75895;BME280;64573;50.328;15.014;2024-02-21T00:58:17;99585.00;;;15.28;57.61
75895;BME280;64573;50.328;15.014;2024-02-21T01:00:43;99583.13;;;15.00;58.86
75895;BME280;64573;50.328;15.014;2024-02-21T01:03:08;99588.34;;;14.80;60.01
75895;BME280;64573;50.328;15.014;2024-02-21T01:05:33;99584.69;;;14.67;59.14
75895;BME280;64573;50.328;15.014;2024-02-21T01:07:59;99579.28;;;14.88;58.61
75895;BME280;64573;50.328;15.014;2024-02-21T01:10:24;99580.16;;;15.16;58.07
75895;BME280;64573;50.328;15.014;2024-02-21T01:12:49;99574.78;;;15.23;57.73
75895;BME280;64573;50.328;15.014;2024-02-21T01:15:15;99572.72;;;15.53;56.50
75895;BME280;64573;50.328;15.014;2024-02-21T01:17:40;99566.00;;;15.77;55.03
75895;BME280;64573;50.328;15.014;2024-02-21T01:22:31;99560.09;;;15.04;57.22
75895;BME280;64573;50.328;15.014;2024-02-21T01:24:56;99557.25;;;14.63;59.03
75895;BME280;64573;50.328;15.014;2024-02-21T01:27:21;99554.53;;;14.84;58.92
75895;BME280;64573;50.328;15.014;2024-02-21T01:29:47;99552.31;;;14.30;59.95
75895;BME280;64573;50.328;15.014;2024-02-21T01:32:15;99546.28;;;14.28;59.75
75895;BME280;64573;50.328;15.014;2024-02-21T01:34:41;99546.34;;;14.50;59.89
75895;BME280;64573;50.328;15.014;2024-02-21T01:37:06;99534.94;;;13.82;61.42
75895;BME280;64573;50.328;15.014;2024-02-21T01:39:33;99529.31;;;13.77;62.12
75895;BME280;64573;50.328;15.014;2024-02-21T01:41:58;99527.69;;;13.83;62.28
75895;BME280;64573;50.328;15.014;2024-02-21T01:46:49;99515.72;;;14.43;60.25
75895;BME280;64573;50.328;15.014;2024-02-21T01:49:15;99514.25;;;14.04;60.57
75895;BME280;64573;50.328;15.014;2024-02-21T01:51:40;99521.50;;;14.03;60.50
75895;BME280;64573;50.328;15.014;2024-02-21T01:54:06;99517.91;;;13.96;61.16
75895;BME280;64573;50.328;15.014;2024-02-21T01:56:31;99518.53;;;13.77;60.77
75895;BME280;64573;50.328;15.014;2024-02-21T01:58:57;99517.06;;;13.30;63.48
75895;BME280;64573;50.328;15.014;2024-02-21T02:01:23;99516.50;;;13.20;64.84
75895;BME280;64573;50.328;15.014;2024-02-21T02:03:48;99508.13;;;13.30;65.21
75895;BME280;64573;50.328;15.014;2024-02-21T02:06:14;99503.97;;;13.42;64.23
75895;BME280;64573;50.328;15.014;2024-02-21T02:08:39;99509.69;;;13.68;63.89
75895;BME280;64573;50.328;15.014;2024-02-21T02:11:05;99514.06;;;13.69;63.18
75895;BME280;64573;50.328;15.014;2024-02-21T02:13:32;99506.66;;;13.57;63.47
75895;BME280;64573;50.328;15.014;2024-02-21T02:15:57;99496.16;;;13.62;63.43
75895;BME280;64573;50.328;15.014;2024-02-21T02:18:22;99492.44;;;13.63;63.80
75895;BME280;64573;50.328;15.014;2024-02-21T02:20:48;99497.19;;;13.82;63.81
75895;BME280;64573;50.328;15.014;2024-02-21T02:25:51;99485.69;;;14.31;60.54
75895;BME280;64573;50.328;15.014;2024-02-21T02:28:17;99492.06;;;14.23;60.55
75895;BME280;64573;50.328;15.014;2024-02-21T02:30:43;99489.81;;;14.27;61.24
75895;BME280;64573;50.328;15.014;2024-02-21T02:33:08;99490.13;;;14.17;61.30
75895;BME280;64573;50.328;15.014;2024-02-21T02:35:34;99490.59;;;14.21;61.41
75895;BME280;64573;50.328;15.014;2024-02-21T02:38:02;99484.50;;;13.97;61.14
75895;BME280;64573;50.328;15.014;2024-02-21T02:40:27;99484.16;;;14.22;60.93
75895;BME280;64573;50.328;15.014;2024-02-21T02:42:53;99479.28;;;14.53;59.51
75895;BME280;64573;50.328;15.014;2024-02-21T02:45:21;99478.19;;;14.48;59.43
75895;BME280;64573;50.328;15.014;2024-02-21T02:47:47;99467.28;;;14.84;58.71
75895;BME280;64573;50.328;15.014;2024-02-21T02:50:13;99470.13;;;14.76;58.73
75895;BME280;64573;50.328;15.014;2024-02-21T02:52:39;99464.50;;;14.71;58.07
75895;BME280;64573;50.328;15.014;2024-02-21T02:55:05;99465.59;;;14.33;59.58
75895;BME280;64573;50.328;15.014;2024-02-21T02:57:31;99455.31;;;14.44;59.48
75895;BME280;64573;50.328;15.014;2024-02-21T02:59:56;99452.25;;;14.47;60.07
75895;BME280;64573;50.328;15.014;2024-02-21T03:02:22;99446.47;;;14.28;60.69
75895;BME280;64573;50.328;15.014;2024-02-21T03:04:48;99446.25;;;14.30;60.87
75895;BME280;64573;50.328;15.014;2024-02-21T03:07:14;99446.72;;;13.76;61.98
75895;BME280;64573;50.328;15.014;2024-02-21T03:09:40;99451.31;;;14.40;60.47
75895;BME280;64573;50.328;15.014;2024-02-21T03:12:06;99451.41;;;14.46;60.27
75895;BME280;64573;50.328;15.014;2024-02-21T03:14:32;99443.31;;;14.46;60.75
75895;BME280;64573;50.328;15.014;2024-02-21T03:16:58;99435.81;;;14.70;59.62
75895;BME280;64573;50.328;15.014;2024-02-21T03:19:24;99432.88;;;14.93;59.26
75895;BME280;64573;50.328;15.014;2024-02-21T03:21:49;99437.19;;;14.87;59.33
75895;BME280;64573;50.328;15.014;2024-02-21T03:24:16;99436.03;;;15.03;58.73
75895;BME280;64573;50.328;15.014;2024-02-21T03:26:41;99437.19;;;14.38;59.81
75895;BME280;64573;50.328;15.014;2024-02-21T03:29:06;99445.50;;;14.36;60.16
75895;BME280;64573;50.328;15.014;2024-02-21T03:31:32;99441.34;;;14.61;60.28
75895;BME280;64573;50.328;15.014;2024-02-21T03:33:58;99444.53;;;14.44;60.45
75895;BME280;64573;50.328;15.014;2024-02-21T03:36:23;99448.41;;;14.56;60.52
75895;BME280;64573;50.328;15.014;2024-02-21T03:38:48;99447.13;;;14.80;59.52
75895;BME280;64573;50.328;15.014;2024-02-21T03:41:14;99453.59;;;14.85;59.17
75895;BME280;64573;50.328;15.014;2024-02-21T03:43:39;99448.56;;;14.54;59.88
75895;BME280;64573;50.328;15.014;2024-02-21T03:46:05;99436.38;;;14.58;60.86
75895;BME280;64573;50.328;15.014;2024-02-21T03:48:31;99434.09;;;14.62;59.95
75895;BME280;64573;50.328;15.014;2024-02-21T03:50:56;99431.59;;;14.88;59.19
75895;BME280;64573;50.328;15.014;2024-02-21T03:53:21;99435.78;;;14.98;59.17
75895;BME280;64573;50.328;15.014;2024-02-21T03:55:47;99428.72;;;14.97;58.86
75895;BME280;64573;50.328;15.014;2024-02-21T03:58:12;99428.97;;;15.02;58.36
75895;BME280;64573;50.328;15.014;2024-02-21T04:00:37;99434.38;;;15.02;58.05
75895;BME280;64573;50.328;15.014;2024-02-21T04:03:04;99430.75;;;15.23;57.71
75895;BME280;64573;50.328;15.014;2024-02-21T04:05:29;99423.69;;;15.22;57.36
75895;BME280;64573;50.328;15.014;2024-02-21T04:07:55;99421.81;;;15.22;57.31
75895;BME280;64573;50.328;15.014;2024-02-21T04:10:20;99424.16;;;14.97;57.84
75895;BME280;64573;50.328;15.014;2024-02-21T04:12:46;99422.81;;;15.14;57.77
75895;BME280;64573;50.328;15.014;2024-02-21T04:15:11;99415.31;;;15.10;57.78
75895;BME280;64573;50.328;15.014;2024-02-21T04:17:37;99419.31;;;14.86;58.72
75895;BME280;64573;50.328;15.014;2024-02-21T04:20:03;99412.78;;;15.02;58.21
75895;BME280;64573;50.328;15.014;2024-02-21T04:22:31;99416.91;;;14.70;58.89
75895;BME280;64573;50.328;15.014;2024-02-21T04:24:57;99414.31;;;14.83;58.84
75895;BME280;64573;50.328;15.014;2024-02-21T04:27:22;99416.19;;;14.82;58.03
75895;BME280;64573;50.328;15.014;2024-02-21T04:29:47;99414.38;;;14.40;59.40
75895;BME280;64573;50.328;15.014;2024-02-21T04:32:13;99414.00;;;14.43;59.56
75895;BME280;64573;50.328;15.014;2024-02-21T04:34:40;99398.28;;;14.47;60.33
75895;BME280;64573;50.328;15.014;2024-02-21T04:37:06;99402.91;;;14.31;61.19
75895;BME280;64573;50.328;15.014;2024-02-21T04:39:31;99400.25;;;14.38;60.15
75895;BME280;64573;50.328;15.014;2024-02-21T04:41:56;99402.72;;;14.89;59.03
75895;BME280;64573;50.328;15.014;2024-02-21T04:44:22;99395.94;;;14.65;58.55
75895;BME280;64573;50.328;15.014;2024-02-21T04:46:47;99398.44;;;14.67;59.40
75895;BME280;64573;50.328;15.014;2024-02-21T04:49:12;99393.28;;;14.72;58.86
75895;BME280;64573;50.328;15.014;2024-02-21T04:51:40;99378.06;;;14.64;59.22
75895;BME280;64573;50.328;15.014;2024-02-21T04:54:05;99378.94;;;14.43;59.55
75895;BME280;64573;50.328;15.014;2024-02-21T04:56:31;99382.56;;;14.29;60.72
75895;BME280;64573;50.328;15.014;2024-02-21T04:58:56;99384.56;;;14.48;60.20
75895;BME280;64573;50.328;15.014;2024-02-21T05:01:21;99381.72;;;14.50;60.79
75895;BME280;64573;50.328;15.014;2024-02-21T05:03:47;99384.22;;;14.86;59.03
75895;BME280;64573;50.328;15.014;2024-02-21T05:06:12;99384.03;;;14.87;58.76
75895;BME280;64573;50.328;15.014;2024-02-21T05:08:37;99390.09;;;14.96;58.41
75895;BME280;64573;50.328;15.014;2024-02-21T05:11:03;99380.88;;;15.25;57.64
75895;BME280;64573;50.328;15.014;2024-02-21T05:13:28;99377.41;;;14.62;58.95
75895;BME280;64573;50.328;15.014;2024-02-21T05:15:53;99382.53;;;14.50;59.63
75895;BME280;64573;50.328;15.014;2024-02-21T05:18:19;99379.88;;;14.57;59.63
75895;BME280;64573;50.328;15.014;2024-02-21T05:20:45;99385.28;;;14.57;59.43
75895;BME280;64573;50.328;15.014;2024-02-21T05:23:11;99381.09;;;14.54;59.90
75895;BME280;64573;50.328;15.014;2024-02-21T05:25:37;99380.91;;;14.06;60.77
75895;BME280;64573;50.328;15.014;2024-02-21T05:28:02;99381.03;;;14.20;61.27
75895;BME280;64573;50.328;15.014;2024-02-21T05:30:28;99379.03;;;14.28;61.02
75895;BME280;64573;50.328;15.014;2024-02-21T05:32:54;99373.00;;;14.05;61.56
75895;BME280;64573;50.328;15.014;2024-02-21T05:35:25;99369.97;;;14.15;60.72
75895;BME280;64573;50.328;15.014;2024-02-21T05:37:50;99372.78;;;14.49;60.29
75895;BME280;64573;50.328;15.014;2024-02-21T05:42:47;99378.59;;;14.53;59.64
75895;BME280;64573;50.328;15.014;2024-02-21T05:45:12;99368.75;;;14.17;60.38
75895;BME280;64573;50.328;15.014;2024-02-21T05:47:38;99365.63;;;13.71;63.31
75895;BME280;64573;50.328;15.014;2024-02-21T05:50:04;99370.19;;;13.70;63.17
75895;BME280;64573;50.328;15.014;2024-02-21T05:52:30;99373.09;;;13.69;63.10
75895;BME280;64573;50.328;15.014;2024-02-21T05:54:55;99369.38;;;13.91;62.15
75895;BME280;64573;50.328;15.014;2024-02-21T06:02:29;99370.31;;;14.33;60.34
75895;BME280;64573;50.328;15.014;2024-02-21T06:04:54;99369.78;;;13.95;62.35
75895;BME280;64573;50.328;15.014;2024-02-21T06:07:19;99368.16;;;14.22;61.65
75895;BME280;64573;50.328;15.014;2024-02-21T06:09:44;99360.88;;;14.44;61.06
75895;BME280;64573;50.328;15.014;2024-02-21T06:12:10;99361.34;;;13.76;62.72
75895;BME280;64573;50.328;15.014;2024-02-21T06:19:36;99354.56;;;14.93;59.50
75895;BME280;64573;50.328;15.014;2024-02-21T06:22:01;99364.88;;;14.82;59.60
75895;BME280;64573;50.328;15.014;2024-02-21T06:27:05;99367.31;;;14.77;59.91
75895;BME280;64573;50.328;15.014;2024-02-21T06:34:44;99357.59;;;14.83;59.05
75895;BME280;64573;50.328;15.014;2024-02-21T06:42:19;99360.81;;;14.37;62.15
75895;BME280;64573;50.328;15.014;2024-02-21T06:44:46;99361.03;;;14.64;61.30
75895;BME280;64573;50.328;15.014;2024-02-21T06:52:18;99354.09;;;14.05;62.33
75895;BME280;64573;50.328;15.014;2024-02-21T06:54:46;99356.53;;;14.77;61.86
75895;BME280;64573;50.328;15.014;2024-02-21T06:57:11;99355.75;;;13.57;63.56
75895;BME280;64573;50.328;15.014;2024-02-21T06:59:36;99358.50;;;14.06;64.31
75895;BME280;64573;50.328;15.014;2024-02-21T07:02:02;99359.53;;;13.62;64.06
75895;BME280;64573;50.328;15.014;2024-02-21T07:04:27;99361.63;;;14.10;62.65
75895;BME280;64573;50.328;15.014;2024-02-21T07:06:54;99359.19;;;14.15;64.21
75895;BME280;64573;50.328;15.014;2024-02-21T07:09:19;99364.28;;;14.52;62.72
75895;BME280;64573;50.328;15.014;2024-02-21T07:11:45;99355.81;;;14.62;61.85
75895;BME280;64573;50.328;15.014;2024-02-21T07:14:10;99368.81;;;14.80;61.13
75895;BME280;64573;50.328;15.014;2024-02-21T07:16:36;99349.16;;;15.54;59.00
75895;BME280;64573;50.328;15.014;2024-02-21T07:19:01;99349.66;;;15.77;58.41
75895;BME280;64573;50.328;15.014;2024-02-21T07:21:27;99355.25;;;15.69;57.45
75895;BME280;64573;50.328;15.014;2024-02-21T07:23:52;99355.72;;;16.39;55.57
75895;BME280;64573;50.328;15.014;2024-02-21T07:26:18;99349.66;;;16.50;55.55
75895;BME280;64573;50.328;15.014;2024-02-21T07:28:43;99350.31;;;16.45;54.69
75895;BME280;64573;50.328;15.014;2024-02-21T07:31:08;99350.25;;;16.92;54.34
75895;BME280;64573;50.328;15.014;2024-02-21T07:33:34;99343.13;;;17.04;53.74
75895;BME280;64573;50.328;15.014;2024-02-21T07:36:00;99340.09;;;16.74;53.99
75895;BME280;64573;50.328;15.014;2024-02-21T07:38:26;99342.53;;;16.95;53.46
75895;BME280;64573;50.328;15.014;2024-02-21T07:40:51;99346.22;;;17.07;53.15
75895;BME280;64573;50.328;15.014;2024-02-21T07:51:02;99333.63;;;16.55;53.25
75895;BME280;64573;50.328;15.014;2024-02-21T07:53:28;99338.38;;;16.86;53.55
75895;BME280;64573;50.328;15.014;2024-02-21T08:03:32;99338.59;;;16.58;54.10
75895;BME280;64573;50.328;15.014;2024-02-21T08:10:58;99339.66;;;16.44;54.38
75895;BME280;64573;50.328;15.014;2024-02-21T08:13:23;99339.47;;;16.59;54.91
75895;BME280;64573;50.328;15.014;2024-02-21T08:15:49;99337.00;;;16.04;54.94
75895;BME280;64573;50.328;15.014;2024-02-21T08:18:14;99336.34;;;16.55;54.43
75895;BME280;64573;50.328;15.014;2024-02-21T08:20:39;99342.34;;;16.77;54.27
75895;BME280;64573;50.328;15.014;2024-02-21T08:23:05;99333.59;;;16.68;53.22
75895;BME280;64573;50.328;15.014;2024-02-21T08:25:30;99332.78;;;17.32;52.38
75895;BME280;64573;50.328;15.014;2024-02-21T08:27:57;99336.72;;;16.78;52.92
75895;BME280;64573;50.328;15.014;2024-02-21T08:32:58;99309.63;;;16.85;52.37
75895;BME280;64573;50.328;15.014;2024-02-21T08:35:23;99319.69;;;17.16;52.19
75895;BME280;64573;50.328;15.014;2024-02-21T08:37:49;99317.25;;;17.01;52.56
75895;BME280;64573;50.328;15.014;2024-02-21T08:42:42;99301.59;;;16.25;54.81
75895;BME280;64573;50.328;15.014;2024-02-21T08:45:08;99309.56;;;17.05;54.02
75895;BME280;64573;50.328;15.014;2024-02-21T08:47:33;99303.84;;;16.48;55.87
75895;BME280;64573;50.328;15.014;2024-02-21T08:50:01;99318.75;;;16.97;56.73
75895;BME280;64573;50.328;15.014;2024-02-21T08:54:59;99315.72;;;16.74;56.45
75895;BME280;64573;50.328;15.014;2024-02-21T08:57:24;99317.38;;;16.75;56.01
75895;BME280;64573;50.328;15.014;2024-02-21T08:59:50;99314.06;;;17.24;55.37
75895;BME280;64573;50.328;15.014;2024-02-21T09:02:15;99298.16;;;17.34;55.12
75895;BME280;64573;50.328;15.014;2024-02-21T09:04:44;99308.38;;;16.88;56.40
75895;BME280;64573;50.328;15.014;2024-02-21T09:07:12;99314.53;;;17.08;55.93
75895;BME280;64573;50.328;15.014;2024-02-21T09:09:37;99309.22;;;17.64;55.50
75895;BME280;64573;50.328;15.014;2024-02-21T09:12:08;99314.13;;;17.04;55.97
75895;BME280;64573;50.328;15.014;2024-02-21T09:14:36;99318.41;;;16.67;58.17
75895;BME280;64573;50.328;15.014;2024-02-21T09:17:02;99328.44;;;16.73;59.12
75895;BME280;64573;50.328;15.014;2024-02-21T09:21:59;99323.03;;;16.34;61.57
75895;BME280;64573;50.328;15.014;2024-02-21T09:24:24;99313.22;;;16.59;61.51
75895;BME280;64573;50.328;15.014;2024-02-21T09:26:49;99319.00;;;17.34;58.64
75895;BME280;64573;50.328;15.014;2024-02-21T09:29:15;99320.09;;;17.58;58.25
75895;BME280;64573;50.328;15.014;2024-02-21T09:31:41;99301.88;;;17.40;56.87
75895;BME280;64573;50.328;15.014;2024-02-21T09:34:07;99289.59;;;17.31;56.27
75895;BME280;64573;50.328;15.014;2024-02-21T09:36:32;99285.53;;;17.85;57.23
75895;BME280;64573;50.328;15.014;2024-02-21T09:38:58;99280.31;;;18.08;55.61
75895;BME280;64573;50.328;15.014;2024-02-21T09:41:27;99273.13;;;18.21;55.02
75895;BME280;64573;50.328;15.014;2024-02-21T09:43:55;99261.81;;;18.60;53.40
75895;BME280;64573;50.328;15.014;2024-02-21T09:46:56;99268.69;;;18.44;52.40
75895;BME280;64573;50.328;15.014;2024-02-21T09:51:51;99281.59;;;17.11;55.44
75895;BME280;64573;50.328;15.014;2024-02-21T09:56:45;99269.59;;;17.63;53.06
75895;BME280;64573;50.328;15.014;2024-02-21T09:59:11;99275.94;;;16.61;55.76
75895;BME280;64573;50.328;15.014;2024-02-21T10:01:37;99271.94;;;16.77;56.03
75895;BME280;64573;50.328;15.014;2024-02-21T10:04:03;99268.41;;;16.76;55.29
75895;BME280;64573;50.328;15.014;2024-02-21T10:06:29;99276.78;;;16.42;56.22
75895;BME280;64573;50.328;15.014;2024-02-21T10:08:55;99274.03;;;16.81;55.66
75895;BME280;64573;50.328;15.014;2024-02-21T10:11:24;99270.78;;;17.43;54.73
75895;BME280;64573;50.328;15.014;2024-02-21T10:13:50;99266.06;;;17.31;54.57
75895;BME280;64573;50.328;15.014;2024-02-21T10:16:16;99253.00;;;18.28;52.90
75895;BME280;64573;50.328;15.014;2024-02-21T10:18:41;99237.81;;;19.12;50.99
75895;BME280;64573;50.328;15.014;2024-02-21T10:21:07;99255.41;;;20.63;46.49
75895;BME280;64573;50.328;15.014;2024-02-21T10:23:42;99255.63;;;21.54;44.20
75895;BME280;64573;50.328;15.014;2024-02-21T10:26:09;99246.69;;;21.59;44.28
75895;BME280;64573;50.328;15.014;2024-02-21T10:28:34;99244.47;;;22.62;41.46
75895;BME280;64573;50.328;15.014;2024-02-21T10:30:59;99234.47;;;23.16;40.86
75895;BME280;64573;50.328;15.014;2024-02-21T10:33:25;99230.75;;;23.76;39.21
75895;BME280;64573;50.328;15.014;2024-02-21T10:35:53;99238.84;;;23.66;39.67
75895;BME280;64573;50.328;15.014;2024-02-21T10:38:18;99234.69;;;21.60;41.55
75895;BME280;64573;50.328;15.014;2024-02-21T10:43:19;99227.97;;;21.22;43.74
75895;BME280;64573;50.328;15.014;2024-02-21T10:48:25;99231.63;;;19.65;46.82
75895;BME280;64573;50.328;15.014;2024-02-21T10:50:57;99234.56;;;19.75;46.69
75895;BME280;64573;50.328;15.014;2024-02-21T10:53:43;99225.47;;;18.80;48.98
75895;BME280;64573;50.328;15.014;2024-02-21T10:56:30;99213.53;;;19.29;48.13
75895;BME280;64573;50.328;15.014;2024-02-21T10:59:01;99213.56;;;19.52;47.52
75895;BME280;64573;50.328;15.014;2024-02-21T11:01:26;99221.16;;;18.54;49.09
75895;BME280;64573;50.328;15.014;2024-02-21T11:03:53;99214.19;;;19.13;49.50
75895;BME280;64573;50.328;15.014;2024-02-21T11:06:20;99207.94;;;18.94;48.38
75895;BME280;64573;50.328;15.014;2024-02-21T11:11:23;99208.97;;;17.26;52.23
75895;BME280;64573;50.328;15.014;2024-02-21T11:13:52;99210.91;;;18.37;49.51
75895;BME280;64573;50.328;15.014;2024-02-21T11:16:22;99206.72;;;19.08;49.46
75895;BME280;64573;50.328;15.014;2024-02-21T11:23:55;99205.53;;;17.37;51.63
75895;BME280;64573;50.328;15.014;2024-02-21T11:26:22;99205.31;;;17.64;52.79
75895;BME280;64573;50.328;15.014;2024-02-21T11:28:59;99209.53;;;16.52;54.02
75895;BME280;64573;50.328;15.014;2024-02-21T11:31:25;99197.06;;;16.96;54.41
75895;BME280;64573;50.328;15.014;2024-02-21T11:33:53;99195.25;;;17.15;55.71
75895;BME280;64573;50.328;15.014;2024-02-21T11:38:54;99179.81;;;17.47;51.91
75895;BME280;64573;50.328;15.014;2024-02-21T11:41:27;99182.13;;;17.43;55.63
75895;BME280;64573;50.328;15.014;2024-02-21T11:43:53;99169.72;;;18.77;51.59
75895;BME280;64573;50.328;15.014;2024-02-21T11:46:19;99180.94;;;19.52;47.57
75895;BME280;64573;50.328;15.014;2024-02-21T11:48:44;99172.25;;;19.32;49.47
75895;BME280;64573;50.328;15.014;2024-02-21T11:53:47;99167.16;;;16.64;53.69
75895;BME280;64573;50.328;15.014;2024-02-21T11:56:13;99164.25;;;16.72;56.01
75895;BME280;64573;50.328;15.014;2024-02-21T11:58:39;99151.16;;;16.69;55.26
75895;BME280;64573;50.328;15.014;2024-02-21T12:01:04;99140.59;;;15.90;55.86
75895;BME280;64573;50.328;15.014;2024-02-21T12:03:29;99140.44;;;15.65;56.20
75895;BME280;64573;50.328;15.014;2024-02-21T12:05:55;99133.66;;;16.07;54.92
75895;BME280;64573;50.328;15.014;2024-02-21T12:08:22;99148.41;;;16.24;57.89
75895;BME280;64573;50.328;15.014;2024-02-21T12:10:47;99126.69;;;15.73;56.38
75895;BME280;64573;50.328;15.014;2024-02-21T12:13:15;99134.97;;;15.91;57.78
75895;BME280;64573;50.328;15.014;2024-02-21T12:15:40;99129.38;;;15.86;56.00
75895;BME280;64573;50.328;15.014;2024-02-21T12:18:06;99135.81;;;15.79;55.25
75895;BME280;64573;50.328;15.014;2024-02-21T12:20:31;99131.66;;;16.47;55.54
75895;BME280;64573;50.328;15.014;2024-02-21T12:23:01;99123.03;;;17.77;52.30
75895;BME280;64573;50.328;15.014;2024-02-21T12:28:04;99113.97;;;17.15;51.70
75895;BME280;64573;50.328;15.014;2024-02-21T12:30:30;99120.03;;;18.03;50.58
75895;BME280;64573;50.328;15.014;2024-02-21T12:32:58;99102.03;;;17.90;48.60
75895;BME280;64573;50.328;15.014;2024-02-21T12:35:24;99096.47;;;17.60;52.32
75895;BME280;64573;50.328;15.014;2024-02-21T12:42:51;99077.03;;;17.20;50.60
75895;BME280;64573;50.328;15.014;2024-02-21T12:45:17;99072.59;;;17.69;51.20
75895;BME280;64573;50.328;15.014;2024-02-21T12:47:43;99071.22;;;17.17;50.71
75895;BME280;64573;50.328;15.014;2024-02-21T12:52:36;99081.22;;;17.41;50.50
75895;BME280;64573;50.328;15.014;2024-02-21T12:57:36;99057.16;;;17.88;52.17
75895;BME280;64573;50.328;15.014;2024-02-21T13:00:02;99048.22;;;18.06;52.36
75895;BME280;64573;50.328;15.014;2024-02-21T13:02:29;99051.28;;;18.09;50.04
75895;BME280;64573;50.328;15.014;2024-02-21T13:07:29;99036.59;;;18.77;48.31
75895;BME280;64573;50.328;15.014;2024-02-21T13:15:08;99026.94;;;17.48;49.16
75895;BME280;64573;50.328;15.014;2024-02-21T13:20:12;99013.63;;;18.31;48.98
75895;BME280;64573;50.328;15.014;2024-02-21T13:25:12;99004.53;;;20.25;44.13
75895;BME280;64573;50.328;15.014;2024-02-21T13:27:43;98995.75;;;20.97;43.46
75895;BME280;64573;50.328;15.014;2024-02-21T13:37:44;98989.72;;;20.78;43.64
75895;BME280;64573;50.328;15.014;2024-02-21T13:40:10;98989.22;;;20.98;43.35
75895;BME280;64573;50.328;15.014;2024-02-21T13:45:04;98968.31;;;21.37;41.64
75895;BME280;64573;50.328;15.014;2024-02-21T13:50:08;98967.44;;;21.75;40.99
75895;BME280;64573;50.328;15.014;2024-02-21T13:52:37;98961.25;;;21.41;42.34
75895;BME280;64573;50.328;15.014;2024-02-21T13:55:03;98957.81;;;22.38;40.33
75895;BME280;64573;50.328;15.014;2024-02-21T13:57:28;98951.91;;;23.68;37.38
75895;BME280;64573;50.328;15.014;2024-02-21T13:59:54;98953.59;;;23.69;37.68
75895;BME280;64573;50.328;15.014;2024-02-21T14:07:29;98942.38;;;25.84;33.60
75895;BME280;64573;50.328;15.014;2024-02-21T14:15:05;98941.63;;;24.01;36.22
75895;BME280;64573;50.328;15.014;2024-02-21T14:17:31;98936.22;;;25.33;34.16
75895;BME280;64573;50.328;15.014;2024-02-21T14:19:56;98932.06;;;26.10;33.55
75895;BME280;64573;50.328;15.014;2024-02-21T14:22:21;98938.31;;;25.72;33.77
75895;BME280;64573;50.328;15.014;2024-02-21T14:24:47;98919.09;;;25.72;33.55
75895;BME280;64573;50.328;15.014;2024-02-21T14:27:12;98918.00;;;25.73;33.02
75895;BME280;64573;50.328;15.014;2024-02-21T14:29:38;98917.09;;;24.57;34.23
75895;BME280;64573;50.328;15.014;2024-02-21T14:32:03;98912.88;;;24.08;34.32
75895;BME280;64573;50.328;15.014;2024-02-21T14:34:29;98912.50;;;23.69;35.73
75895;BME280;64573;50.328;15.014;2024-02-21T14:36:54;98904.78;;;23.03;36.65
75895;BME280;64573;50.328;15.014;2024-02-21T14:39:19;98901.81;;;22.14;38.17
75895;BME280;64573;50.328;15.014;2024-02-21T14:41:45;98896.47;;;21.14;39.99
75895;BME280;64573;50.328;15.014;2024-02-21T14:44:10;98894.84;;;21.13;40.30
75895;BME280;64573;50.328;15.014;2024-02-21T14:46:37;98888.88;;;20.78;41.69
75895;BME280;64573;50.328;15.014;2024-02-21T14:49:03;98890.41;;;22.22;38.77
75895;BME280;64573;50.328;15.014;2024-02-21T14:51:29;98888.81;;;22.95;38.07
75895;BME280;64573;50.328;15.014;2024-02-21T14:53:55;98884.56;;;23.67;36.18
75895;BME280;64573;50.328;15.014;2024-02-21T14:56:21;98871.25;;;24.21;35.56
75895;BME280;64573;50.328;15.014;2024-02-21T14:58:46;98876.78;;;24.52;35.57
75895;BME280;64573;50.328;15.014;2024-02-21T15:06:22;98877.06;;;22.57;37.73
75895;BME280;64573;50.328;15.014;2024-02-21T15:08:48;98863.44;;;22.30;38.87
75895;BME280;64573;50.328;15.014;2024-02-21T15:13:50;98858.81;;;22.04;39.32
75895;BME280;64573;50.328;15.014;2024-02-21T15:16:15;98860.88;;;22.46;38.86